Terminal Aerodrome Forecast
Issued by NWS

Home | Current Version | Previous Version | Text Only | Print | Product List | Glossary On
Versions: 1 2 3 4 5 6 7 8 9 10 11 12 13 14 15 16 17 18 19 20 21
217
FTUS43 KAPX 052155 AAA
TAFPLN
TAF AMD
KPLN 052155Z 0522/0618 28007KT P6SM SCT040
     FM060100 26004KT P6SM SCT025 BKN100
     FM060900 24010KT 3SM -SHSN OVC015
     FM061500 27010KT 4SM -SHSN OVC021=

USA.gov is the U.S. government's official web portal to all federal, state and local government web resources and services.